createdAt,value
2017-06-08T00:01:48.233Z,11.9
2017-06-08T00:12:02.970Z,11.9
2017-06-08T00:22:18.537Z,12.3
2017-06-08T00:32:32.731Z,12.3
2017-06-08T00:42:47.640Z,12.5
2017-06-08T00:53:01.524Z,12.5
2017-06-08T01:03:16.099Z,12.4
2017-06-08T01:13:31.412Z,12.5
2017-06-08T01:23:45.611Z,12.4
2017-06-08T01:33:59.818Z,12.3
2017-06-08T01:44:13.838Z,12.2
2017-06-08T01:54:28.746Z,12.3
2017-06-08T02:04:43.285Z,12.6
2017-06-08T02:14:58.164Z,12.7
2017-06-08T02:25:12.976Z,12.8
2017-06-08T02:35:28.285Z,12.7
2017-06-08T02:45:42.651Z,12.7
2017-06-08T02:55:57.499Z,12.8
2017-06-08T03:06:12.660Z,13.2
2017-06-08T03:16:27.763Z,13.2
2017-06-08T03:26:42.463Z,13.2
2017-06-08T03:36:57.007Z,13.5
2017-06-08T03:47:11.463Z,13.5
2017-06-08T03:57:26.090Z,13.5
2017-06-08T04:07:40.702Z,13.2
2017-06-08T04:17:56.038Z,12.8
2017-06-08T04:28:11.526Z,12.5
2017-06-08T04:38:25.794Z,12.3
2017-06-08T04:48:40.317Z,12.1
2017-06-08T04:58:54.094Z,12.1
2017-06-08T05:09:07.843Z,12.1
2017-06-08T05:19:21.741Z,12.3
2017-06-08T05:29:36.997Z,12.4
2017-06-08T05:39:52.436Z,12.7
2017-06-08T05:50:07.047Z,13
2017-06-08T06:00:21.671Z,13.4
2017-06-08T06:10:37.418Z,13.9
2017-06-08T06:20:51.480Z,14.5
2017-06-08T06:31:06.519Z,14.2
2017-06-08T06:41:21.104Z,14.6
2017-06-08T06:51:34.828Z,14.6
2017-06-08T07:01:50.169Z,14.7
2017-06-08T07:12:04.423Z,14.8
2017-06-08T07:22:18.530Z,15
2017-06-08T07:32:32.494Z,15.5
2017-06-08T07:42:47.761Z,15.5
2017-06-08T07:53:01.613Z,15.7
2017-06-08T08:03:16.744Z,15.5
2017-06-08T08:13:31.026Z,16.1
2017-06-08T08:23:45.966Z,16.4
2017-06-08T08:34:01.067Z,17.7
2017-06-08T08:44:15.978Z,18.3
2017-06-08T08:54:31.290Z,18.4
2017-06-08T09:04:45.979Z,19.4
2017-06-08T09:15:00.305Z,19
2017-06-08T09:25:14.553Z,19.8
2017-06-08T09:35:29.569Z,19.5
2017-06-08T09:45:44.918Z,20.4
2017-06-08T09:55:59.713Z,20
2017-06-08T10:06:15.245Z,21.7
2017-06-08T10:16:29.856Z,21.5
2017-06-08T10:26:45.160Z,20.9
2017-06-08T10:37:00.733Z,21
2017-06-08T10:47:15.099Z,21
2017-06-08T10:57:30.220Z,20.5
2017-06-08T11:07:44.552Z,20.4
2017-06-08T11:18:00.296Z,20.9
2017-06-08T11:28:16.166Z,20.8
2017-06-08T11:38:31.276Z,21.2
2017-06-08T11:48:45.471Z,20.7
2017-06-08T11:59:00.602Z,21.1
2017-06-08T12:09:15.537Z,21.6
2017-06-08T12:19:29.469Z,21.8
2017-06-08T12:29:44.810Z,22.2
2017-06-08T12:40:00.439Z,23.2
2017-06-08T12:50:15.070Z,23.8
2017-06-08T13:00:30.515Z,23.6
2017-06-08T13:10:45.600Z,24.6
2017-06-08T13:21:00.777Z,23.5
2017-06-08T13:31:16.264Z,23.4
2017-06-08T13:41:31.661Z,23.4
2017-06-08T13:51:46.391Z,23.2
2017-06-08T14:02:02.120Z,23.1
2017-06-08T14:12:17.847Z,23.5
2017-06-08T14:22:31.901Z,23.7
2017-06-08T14:32:46.503Z,23.8
2017-06-08T14:43:01.648Z,23.5
2017-06-08T14:53:15.849Z,23.1
2017-06-08T15:03:30.919Z,24.1
2017-06-08T15:13:45.684Z,23.8
2017-06-08T15:24:00.971Z,23.7
2017-06-08T15:34:16.738Z,24.3
2017-06-08T15:44:30.752Z,23.5
2017-06-08T15:54:45.789Z,23.8
2017-06-08T16:05:00.745Z,23.3
2017-06-08T16:15:15.997Z,23.3
2017-06-08T16:25:30.050Z,23.4
2017-06-08T16:35:45.625Z,23.1
2017-06-08T16:46:00.022Z,23.1
2017-06-08T16:56:15.095Z,23.9
2017-06-08T17:06:30.642Z,24.4
2017-06-08T17:16:45.719Z,24.1
2017-06-08T17:27:01.053Z,23.9
2017-06-08T17:37:16.243Z,23.8
2017-06-08T17:47:30.888Z,23.6
2017-06-08T17:57:45.778Z,23.5
2017-06-08T18:08:00.844Z,23.4
2017-06-08T18:18:15.668Z,22.9
2017-06-08T18:28:29.949Z,22.5
2017-06-08T18:38:45.410Z,22.3
2017-06-08T18:49:00.958Z,22.1
2017-06-08T18:59:15.015Z,21.9
2017-06-08T19:09:30.036Z,21.5
2017-06-08T19:19:44.205Z,21
2017-06-08T19:29:58.638Z,20.2
2017-06-08T19:40:14.134Z,19.9
2017-06-08T19:50:29.887Z,19.4
2017-06-08T20:00:45.650Z,18.9
2017-06-08T20:11:01.432Z,18.7
2017-06-08T20:21:16.181Z,18.2
2017-06-08T20:31:30.153Z,17.9
2017-06-08T20:41:44.363Z,17.5
2017-06-08T20:52:00.121Z,16.9
2017-06-08T21:02:15.500Z,17.2
2017-06-08T21:12:29.998Z,17.6
2017-06-08T21:22:44.098Z,17.2
2017-06-08T21:32:58.897Z,17
2017-06-08T21:43:13.795Z,16.7
2017-06-08T21:53:27.787Z,17.1
2017-06-08T22:03:42.389Z,16.7
2017-06-08T22:13:57.349Z,16.5
2017-06-08T22:24:13.026Z,17.1
2017-06-08T22:34:27.730Z,17
2017-06-08T22:44:43.173Z,17.2
2017-06-08T22:54:58.445Z,17.4
2017-06-08T23:05:12.680Z,17.3
2017-06-08T23:15:28.382Z,16.9
2017-06-08T23:25:42.965Z,17
2017-06-08T23:35:57.457Z,16.7
2017-06-08T23:46:13.069Z,16.5
2017-06-08T23:56:27.738Z,16.6
